sensor_id;sensor_type;location;lat;lon;timestamp;pressure;altitude;pressure_sealevel;temperature;humidity
10176;BME280;18221;38.704;0.152;2022-07-18T00:26:15;99106.09;;;30.06;29.44
10176;BME280;18221;38.704;0.152;2022-07-18T00:28:43;99096.19;;;30.00;28.96
10176;BME280;18221;38.704;0.152;2022-07-18T00:31:11;99100.00;;;29.99;27.81
10176;BME280;18221;38.704;0.152;2022-07-18T00:33:38;99101.66;;;29.95;26.31
10176;BME280;18221;38.704;0.152;2022-07-18T00:36:07;99099.16;;;29.93;26.05
10176;BME280;18221;38.704;0.152;2022-07-18T00:38:35;99094.19;;;29.90;25.56
10176;BME280;18221;38.704;0.152;2022-07-18T00:41:03;99092.78;;;29.83;25.42
10176;BME280;18221;38.704;0.152;2022-07-18T00:43:33;99096.06;;;29.80;25.80
10176;BME280;18221;38.704;0.152;2022-07-18T00:46:01;99102.84;;;29.77;25.51
10176;BME280;18221;38.704;0.152;2022-07-18T00:48:29;99095.97;;;29.75;25.91
10176;BME280;18221;38.704;0.152;2022-07-18T00:50:57;99095.72;;;29.76;25.89
10176;BME280;18221;38.704;0.152;2022-07-18T00:53:24;99095.44;;;29.78;26.54
10176;BME280;18221;38.704;0.152;2022-07-18T00:55:53;99091.91;;;29.77;26.55
10176;BME280;18221;38.704;0.152;2022-07-18T00:58:21;99095.44;;;29.78;26.18
10176;BME280;18221;38.704;0.152;2022-07-18T01:00:51;99097.38;;;29.77;26.13
10176;BME280;18221;38.704;0.152;2022-07-18T01:03:35;99082.03;;;29.76;26.59
10176;BME280;18221;38.704;0.152;2022-07-18T01:06:03;99094.31;;;29.74;26.18
10176;BME280;18221;38.704;0.152;2022-07-18T01:08:31;99087.22;;;29.78;26.20
10176;BME280;18221;38.704;0.152;2022-07-18T01:11:01;99086.34;;;29.72;26.28
10176;BME280;18221;38.704;0.152;2022-07-18T01:13:29;99088.53;;;29.70;26.67
10176;BME280;18221;38.704;0.152;2022-07-18T01:15:58;99089.88;;;29.68;26.41
10176;BME280;18221;38.704;0.152;2022-07-18T01:18:27;99086.56;;;29.61;26.20
10176;BME280;18221;38.704;0.152;2022-07-18T01:20:56;99088.13;;;29.57;26.19
10176;BME280;18221;38.704;0.152;2022-07-18T01:23:24;99086.56;;;29.61;26.35
10176;BME280;18221;38.704;0.152;2022-07-18T01:25:52;99076.69;;;29.60;26.10
10176;BME280;18221;38.704;0.152;2022-07-18T01:28:20;99082.63;;;29.52;26.29
10176;BME280;18221;38.704;0.152;2022-07-18T01:30:48;99075.47;;;29.46;26.29
10176;BME280;18221;38.704;0.152;2022-07-18T01:33:17;99083.09;;;29.44;26.40
10176;BME280;18221;38.704;0.152;2022-07-18T01:35:45;99078.22;;;29.46;26.42
10176;BME280;18221;38.704;0.152;2022-07-18T01:38:15;99077.44;;;29.50;26.71
10176;BME280;18221;38.704;0.152;2022-07-18T01:40:44;99078.47;;;29.44;26.85
10176;BME280;18221;38.704;0.152;2022-07-18T01:43:12;99080.31;;;29.38;25.81
10176;BME280;18221;38.704;0.152;2022-07-18T01:45:40;99074.84;;;29.38;25.79
10176;BME280;18221;38.704;0.152;2022-07-18T01:48:08;99077.03;;;29.36;25.96
10176;BME280;18221;38.704;0.152;2022-07-18T01:50:36;99084.16;;;29.38;25.86
10176;BME280;18221;38.704;0.152;2022-07-18T01:53:04;99077.03;;;29.36;25.25
10176;BME280;18221;38.704;0.152;2022-07-18T01:55:33;99068.56;;;29.38;25.22
10176;BME280;18221;38.704;0.152;2022-07-18T01:58:01;99066.63;;;29.38;25.24
10176;BME280;18221;38.704;0.152;2022-07-18T02:00:29;99070.75;;;29.41;25.46
10176;BME280;18221;38.704;0.152;2022-07-18T02:02:58;99068.03;;;29.41;26.48
10176;BME280;18221;38.704;0.152;2022-07-18T02:05:26;99070.53;;;29.43;26.38
10176;BME280;18221;38.704;0.152;2022-07-18T02:07:53;99071.31;;;29.38;26.20
10176;BME280;18221;38.704;0.152;2022-07-18T02:10:22;99074.03;;;29.38;26.46
10176;BME280;18221;38.704;0.152;2022-07-18T02:12:51;99067.94;;;29.31;25.49
10176;BME280;18221;38.704;0.152;2022-07-18T02:15:19;99064.31;;;29.25;25.09
10176;BME280;18221;38.704;0.152;2022-07-18T02:17:48;99055.56;;;29.23;24.80
10176;BME280;18221;38.704;0.152;2022-07-18T02:20:16;99064.28;;;29.20;24.94
10176;BME280;18221;38.704;0.152;2022-07-18T02:22:44;99055.75;;;29.17;26.58
10176;BME280;18221;38.704;0.152;2022-07-18T02:25:13;99059.41;;;29.22;28.76
10176;BME280;18221;38.704;0.152;2022-07-18T02:27:41;99060.72;;;29.20;29.74
10176;BME280;18221;38.704;0.152;2022-07-18T02:30:11;99063.69;;;29.18;31.93
10176;BME280;18221;38.704;0.152;2022-07-18T02:32:39;99059.25;;;29.12;33.71
10176;BME280;18221;38.704;0.152;2022-07-18T02:35:09;99060.28;;;29.06;34.56
10176;BME280;18221;38.704;0.152;2022-07-18T02:37:38;99067.41;;;29.07;35.10
10176;BME280;18221;38.704;0.152;2022-07-18T02:40:09;99068.63;;;28.95;36.26
10176;BME280;18221;38.704;0.152;2022-07-18T02:42:38;99065.66;;;28.96;36.46
10176;BME280;18221;38.704;0.152;2022-07-18T02:45:08;99070.03;;;28.97;36.98
10176;BME280;18221;38.704;0.152;2022-07-18T02:47:37;99064.59;;;28.75;38.58
10176;BME280;18221;38.704;0.152;2022-07-18T02:50:07;99067.06;;;28.77;40.08
10176;BME280;18221;38.704;0.152;2022-07-18T02:52:35;99067.56;;;28.74;41.08
10176;BME280;18221;38.704;0.152;2022-07-18T02:55:04;99068.78;;;28.61;42.38
10176;BME280;18221;38.704;0.152;2022-07-18T02:57:32;99058.59;;;28.57;42.52
10176;BME280;18221;38.704;0.152;2022-07-18T03:00:00;99059.13;;;28.54;42.76
10176;BME280;18221;38.704;0.152;2022-07-18T03:02:28;99060.50;;;28.56;41.74
10176;BME280;18221;38.704;0.152;2022-07-18T03:04:57;99061.00;;;28.53;40.78
10176;BME280;18221;38.704;0.152;2022-07-18T03:07:25;99049.75;;;28.50;39.31
10176;BME280;18221;38.704;0.152;2022-07-18T03:09:54;99051.47;;;28.56;38.85
10176;BME280;18221;38.704;0.152;2022-07-18T03:12:22;99062.84;;;28.48;37.06
10176;BME280;18221;38.704;0.152;2022-07-18T03:14:50;99047.03;;;28.50;35.59
10176;BME280;18221;38.704;0.152;2022-07-18T03:17:18;99048.63;;;28.46;34.97
10176;BME280;18221;38.704;0.152;2022-07-18T03:19:46;99046.84;;;28.35;34.82
10176;BME280;18221;38.704;0.152;2022-07-18T03:22:15;99051.78;;;28.38;35.36
10176;BME280;18221;38.704;0.152;2022-07-18T03:24:44;99047.16;;;28.38;36.45
10176;BME280;18221;38.704;0.152;2022-07-18T03:27:11;99049.50;;;28.30;36.17
10176;BME280;18221;38.704;0.152;2022-07-18T03:29:40;99049.63;;;28.40;37.16
10176;BME280;18221;38.704;0.152;2022-07-18T03:32:07;99040.00;;;28.54;36.81
10176;BME280;18221;38.704;0.152;2022-07-18T03:34:35;99034.59;;;28.59;37.71
10176;BME280;18221;38.704;0.152;2022-07-18T03:37:03;99038.66;;;28.56;37.64
10176;BME280;18221;38.704;0.152;2022-07-18T03:39:33;99037.25;;;28.54;37.25
10176;BME280;18221;38.704;0.152;2022-07-18T03:42:00;99038.66;;;28.56;37.26
10176;BME280;18221;38.704;0.152;2022-07-18T03:44:28;99031.84;;;28.59;37.27
10176;BME280;18221;38.704;0.152;2022-07-18T03:46:56;99030.97;;;28.53;38.01
10176;BME280;18221;38.704;0.152;2022-07-18T03:49:24;99024.59;;;28.48;37.49
10176;BME280;18221;38.704;0.152;2022-07-18T03:51:52;99036.69;;;28.52;37.66
10176;BME280;18221;38.704;0.152;2022-07-18T03:54:21;99031.72;;;28.49;37.47
10176;BME280;18221;38.704;0.152;2022-07-18T03:56:51;99030.06;;;28.48;37.34
10176;BME280;18221;38.704;0.152;2022-07-18T03:59:19;99029.19;;;28.42;38.43
10176;BME280;18221;38.704;0.152;2022-07-18T04:01:47;99038.19;;;28.43;40.39
10176;BME280;18221;38.704;0.152;2022-07-18T04:04:15;99034.22;;;28.29;41.59
10176;BME280;18221;38.704;0.152;2022-07-18T04:06:42;99037.94;;;28.23;42.14
10176;BME280;18221;38.704;0.152;2022-07-18T04:09:10;99040.91;;;28.21;43.09
10176;BME280;18221;38.704;0.152;2022-07-18T04:11:38;99038.28;;;28.26;41.41
10176;BME280;18221;38.704;0.152;2022-07-18T04:14:08;99040.59;;;28.17;42.11
10176;BME280;18221;38.704;0.152;2022-07-18T04:16:35;99041.75;;;28.22;43.46
10176;BME280;18221;38.704;0.152;2022-07-18T04:19:03;99038.28;;;28.26;43.68
10176;BME280;18221;38.704;0.152;2022-07-18T04:21:31;99037.13;;;28.22;44.93
10176;BME280;18221;38.704;0.152;2022-07-18T04:23:59;99043.13;;;28.02;46.73
10176;BME280;18221;38.704;0.152;2022-07-18T04:26:27;99044.84;;;28.08;47.30
10176;BME280;18221;38.704;0.152;2022-07-18T04:28:55;99041.47;;;28.01;48.61
10176;BME280;18221;38.704;0.152;2022-07-18T04:31:24;99048.50;;;27.97;45.64
10176;BME280;18221;38.704;0.152;2022-07-18T04:33:52;99046.34;;;27.99;45.22
10176;BME280;18221;38.704;0.152;2022-07-18T04:36:20;99043.53;;;27.94;46.14
10176;BME280;18221;38.704;0.152;2022-07-18T04:38:48;99050.31;;;27.92;45.27
10176;BME280;18221;38.704;0.152;2022-07-18T04:41:16;99049.41;;;27.86;46.48
10176;BME280;18221;38.704;0.152;2022-07-18T04:43:48;99054.44;;;27.61;48.10
10176;BME280;18221;38.704;0.152;2022-07-18T04:46:16;99050.91;;;27.61;50.49
10176;BME280;18221;38.704;0.152;2022-07-18T04:48:45;99050.59;;;27.12;55.71
10176;BME280;18221;38.704;0.152;2022-07-18T04:51:13;99049.72;;;26.95;56.19
10176;BME280;18221;38.704;0.152;2022-07-18T04:53:41;99059.13;;;27.16;55.42
10176;BME280;18221;38.704;0.152;2022-07-18T04:56:09;99055.09;;;26.90;56.15
10176;BME280;18221;38.704;0.152;2022-07-18T04:58:37;99060.75;;;26.88;56.55
10176;BME280;18221;38.704;0.152;2022-07-18T05:01:05;99053.50;;;26.66;57.57
10176;BME280;18221;38.704;0.152;2022-07-18T05:03:33;99060.59;;;26.67;57.36
10176;BME280;18221;38.704;0.152;2022-07-18T05:06:02;99059.50;;;26.79;56.33
10176;BME280;18221;38.704;0.152;2022-07-18T05:08:30;99066.69;;;26.85;57.62
10176;BME280;18221;38.704;0.152;2022-07-18T05:10:58;99063.41;;;26.83;57.92
10176;BME280;18221;38.704;0.152;2022-07-18T05:13:26;99061.03;;;26.75;57.95
10176;BME280;18221;38.704;0.152;2022-07-18T05:15:54;99059.09;;;26.59;59.07
10176;BME280;18221;38.704;0.152;2022-07-18T05:18:22;99065.13;;;26.61;59.09
10176;BME280;18221;38.704;0.152;2022-07-18T05:20:50;99066.06;;;26.67;59.09
10176;BME280;18221;38.704;0.152;2022-07-18T05:23:19;99063.97;;;26.85;58.39
10176;BME280;18221;38.704;0.152;2022-07-18T05:25:49;99068.53;;;26.68;58.84
10176;BME280;18221;38.704;0.152;2022-07-18T05:28:17;99060.72;;;26.60;58.89
10176;BME280;18221;38.704;0.152;2022-07-18T05:30:45;99063.44;;;26.60;59.10
10176;BME280;18221;38.704;0.152;2022-07-18T05:33:13;99064.84;;;26.63;59.06
10176;BME280;18221;38.704;0.152;2022-07-18T05:35:41;99072.81;;;26.64;59.13
10176;BME280;18221;38.704;0.152;2022-07-18T05:38:09;99067.84;;;26.61;59.66
10176;BME280;18221;38.704;0.152;2022-07-18T05:40:38;99072.31;;;26.67;59.94
10176;BME280;18221;38.704;0.152;2022-07-18T05:43:06;99067.03;;;26.49;60.33
10176;BME280;18221;38.704;0.152;2022-07-18T05:45:35;99069.00;;;26.65;59.83
10176;BME280;18221;38.704;0.152;2022-07-18T05:48:04;99068.31;;;26.58;60.10
10176;BME280;18221;38.704;0.152;2022-07-18T05:50:32;99075.91;;;26.56;60.08
10176;BME280;18221;38.704;0.152;2022-07-18T05:53:00;99074.66;;;26.75;59.35
10176;BME280;18221;38.704;0.152;2022-07-18T05:55:28;99077.53;;;26.57;60.10
10176;BME280;18221;38.704;0.152;2022-07-18T05:57:57;99077.16;;;26.65;59.76
10176;BME280;18221;38.704;0.152;2022-07-18T06:00:25;99083.69;;;26.64;60.34
10176;BME280;18221;38.704;0.152;2022-07-18T06:02:53;99077.63;;;26.74;60.17
10176;BME280;18221;38.704;0.152;2022-07-18T06:05:22;99080.25;;;26.69;60.34
10176;BME280;18221;38.704;0.152;2022-07-18T06:07:50;99083.63;;;26.48;60.61
10176;BME280;18221;38.704;0.152;2022-07-18T06:10:18;99090.47;;;26.50;60.56
10176;BME280;18221;38.704;0.152;2022-07-18T06:12:46;99082.81;;;26.75;59.29
10176;BME280;18221;38.704;0.152;2022-07-18T06:15:16;99080.94;;;26.76;59.48
10176;BME280;18221;38.704;0.152;2022-07-18T06:17:44;99087.69;;;26.85;58.93
10176;BME280;18221;38.704;0.152;2022-07-18T06:20:12;99094.66;;;26.92;58.45
10176;BME280;18221;38.704;0.152;2022-07-18T06:22:41;99096.72;;;27.02;56.14
10176;BME280;18221;38.704;0.152;2022-07-18T06:25:09;99094.63;;;27.21;55.10
10176;BME280;18221;38.704;0.152;2022-07-18T06:27:37;99107.97;;;27.34;53.78
10176;BME280;18221;38.704;0.152;2022-07-18T06:30:08;99110.34;;;27.58;53.62
10176;BME280;18221;38.704;0.152;2022-07-18T06:32:37;99104.06;;;27.30;51.82
10176;BME280;18221;38.704;0.152;2022-07-18T06:35:07;99103.88;;;27.48;49.96
10176;BME280;18221;38.704;0.152;2022-07-18T06:37:36;99112.56;;;27.45;49.87
10176;BME280;18221;38.704;0.152;2022-07-18T06:40:05;99115.25;;;27.73;50.45
10176;BME280;18221;38.704;0.152;2022-07-18T06:42:34;99112.75;;;27.88;49.90
10176;BME280;18221;38.704;0.152;2022-07-18T06:45:02;99114.06;;;27.86;49.48
10176;BME280;18221;38.704;0.152;2022-07-18T06:47:30;99117.47;;;27.76;48.93
10176;BME280;18221;38.704;0.152;2022-07-18T06:50:00;99112.84;;;28.10;48.44
10176;BME280;18221;38.704;0.152;2022-07-18T06:52:28;99109.44;;;28.20;46.98
10176;BME280;18221;38.704;0.152;2022-07-18T06:54:56;99106.84;;;28.30;48.46
10176;BME280;18221;38.704;0.152;2022-07-18T06:57:24;99109.22;;;28.43;48.26
10176;BME280;18221;38.704;0.152;2022-07-18T06:59:52;99117.22;;;28.28;45.01
10176;BME280;18221;38.704;0.152;2022-07-18T07:02:20;99113.22;;;28.35;44.98
10176;BME280;18221;38.704;0.152;2022-07-18T07:04:48;99114.19;;;28.46;43.65
10176;BME280;18221;38.704;0.152;2022-07-18T07:07:17;99109.72;;;28.40;44.74
10176;BME280;18221;38.704;0.152;2022-07-18T07:09:45;99110.13;;;28.65;44.41
10176;BME280;18221;38.704;0.152;2022-07-18T07:12:13;99119.50;;;28.74;43.82
10176;BME280;18221;38.704;0.152;2022-07-18T07:14:41;99123.25;;;28.68;42.04
10176;BME280;18221;38.704;0.152;2022-07-18T07:17:09;99124.53;;;29.04;41.51
10176;BME280;18221;38.704;0.152;2022-07-18T07:19:37;99110.78;;;29.20;40.52
10176;BME280;18221;38.704;0.152;2022-07-18T07:22:05;99115.38;;;29.42;40.57
10176;BME280;18221;38.704;0.152;2022-07-18T07:24:34;99117.72;;;29.60;39.98
10176;BME280;18221;38.704;0.152;2022-07-18T07:27:04;99117.13;;;29.53;42.07
10176;BME280;18221;38.704;0.152;2022-07-18T07:29:32;99119.25;;;29.46;40.70
10176;BME280;18221;38.704;0.152;2022-07-18T07:32:00;99122.31;;;29.54;41.79
10176;BME280;18221;38.704;0.152;2022-07-18T07:34:28;99119.44;;;29.66;39.24
10176;BME280;18221;38.704;0.152;2022-07-18T07:36:57;99118.84;;;29.90;38.54
10176;BME280;18221;38.704;0.152;2022-07-18T07:39:25;99124.28;;;29.85;37.51
10176;BME280;18221;38.704;0.152;2022-07-18T07:41:54;99121.38;;;29.70;41.37
10176;BME280;18221;38.704;0.152;2022-07-18T07:44:22;99120.88;;;30.05;43.18
10176;BME280;18221;38.704;0.152;2022-07-18T07:46:51;99120.25;;;29.93;44.73
10176;BME280;18221;38.704;0.152;2022-07-18T07:49:19;99121.97;;;30.04;44.84
10176;BME280;18221;38.704;0.152;2022-07-18T07:51:46;99130.00;;;30.16;44.12
10176;BME280;18221;38.704;0.152;2022-07-18T07:54:14;99118.94;;;30.37;44.96
10176;BME280;18221;38.704;0.152;2022-07-18T07:56:42;99123.69;;;30.52;44.30
10176;BME280;18221;38.704;0.152;2022-07-18T07:59:11;99126.38;;;30.99;43.32
10176;BME280;18221;38.704;0.152;2022-07-18T08:01:39;99129.03;;;31.76;41.94
10176;BME280;18221;38.704;0.152;2022-07-18T08:04:07;99133.69;;;32.31;41.10
10176;BME280;18221;38.704;0.152;2022-07-18T08:06:35;99130.31;;;32.64;39.94
10176;BME280;18221;38.704;0.152;2022-07-18T08:09:03;99126.50;;;33.24;38.39
10176;BME280;18221;38.704;0.152;2022-07-18T08:11:32;99126.66;;;33.87;36.35
10176;BME280;18221;38.704;0.152;2022-07-18T08:14:00;99126.75;;;34.10;35.61
10176;BME280;18221;38.704;0.152;2022-07-18T08:16:30;99130.19;;;34.50;34.80
10176;BME280;18221;38.704;0.152;2022-07-18T08:18:58;99118.19;;;34.41;33.94
10176;BME280;18221;38.704;0.152;2022-07-18T08:21:25;99128.63;;;34.44;34.23
10176;BME280;18221;38.704;0.152;2022-07-18T08:23:53;99121.38;;;34.24;35.34
10176;BME280;18221;38.704;0.152;2022-07-18T08:26:21;99120.72;;;34.61;35.11
10176;BME280;18221;38.704;0.152;2022-07-18T08:28:49;99121.47;;;34.43;35.07
10176;BME280;18221;38.704;0.152;2022-07-18T08:31:17;99126.28;;;35.03;32.83
10176;BME280;18221;38.704;0.152;2022-07-18T08:33:46;99118.66;;;35.38;31.86
10176;BME280;18221;38.704;0.152;2022-07-18T08:36:15;99122.75;;;35.40;31.82
10176;BME280;18221;38.704;0.152;2022-07-18T08:38:43;99123.41;;;36.53;30.39
10176;BME280;18221;38.704;0.152;2022-07-18T08:41:11;99127.25;;;37.33;29.08
10176;BME280;18221;38.704;0.152;2022-07-18T08:43:40;99116.88;;;37.75;28.00
10176;BME280;18221;38.704;0.152;2022-07-18T08:46:09;99124.66;;;38.39;26.04
10176;BME280;18221;38.704;0.152;2022-07-18T08:48:38;99116.44;;;38.03;26.31
10176;BME280;18221;38.704;0.152;2022-07-18T08:51:09;99130.03;;;38.66;22.09
10176;BME280;18221;38.704;0.152;2022-07-18T08:53:37;99127.31;;;39.31;21.57
10176;BME280;18221;38.704;0.152;2022-07-18T08:56:06;99136.13;;;39.50;20.79
10176;BME280;18221;38.704;0.152;2022-07-18T08:58:34;99129.75;;;39.41;18.26
10176;BME280;18221;38.704;0.152;2022-07-18T09:01:02;99125.75;;;38.60;20.35
10176;BME280;18221;38.704;0.152;2022-07-18T09:03:30;99136.28;;;38.19;19.86
10176;BME280;18221;38.704;0.152;2022-07-18T09:06:08;99134.16;;;37.58;18.63
10176;BME280;18221;38.704;0.152;2022-07-18T09:08:37;99138.69;;;37.04;20.44
10176;BME280;18221;38.704;0.152;2022-07-18T09:11:09;99136.88;;;35.57;20.44
10176;BME280;18221;38.704;0.152;2022-07-18T09:13:40;99135.31;;;35.32;22.22
10176;BME280;18221;38.704;0.152;2022-07-18T09:16:11;99134.47;;;35.51;21.49
10176;BME280;18221;38.704;0.152;2022-07-18T09:18:42;99138.81;;;35.57;24.83
10176;BME280;18221;38.704;0.152;2022-07-18T09:21:13;99134.16;;;35.33;23.07
10176;BME280;18221;38.704;0.152;2022-07-18T09:23:44;99143.66;;;35.27;24.74
10176;BME280;18221;38.704;0.152;2022-07-18T09:26:37;99139.34;;;34.74;21.90
10176;BME280;18221;38.704;0.152;2022-07-18T09:29:06;99140.09;;;34.27;22.28
10176;BME280;18221;38.704;0.152;2022-07-18T09:31:34;99142.06;;;34.50;22.38
10176;BME280;18221;38.704;0.152;2022-07-18T09:34:03;99149.13;;;34.61;23.07
10176;BME280;18221;38.704;0.152;2022-07-18T09:36:33;99149.28;;;34.46;23.42
10176;BME280;18221;38.704;0.152;2022-07-18T09:39:18;99151.78;;;34.71;22.66
10176;BME280;18221;38.704;0.152;2022-07-18T09:41:46;99138.94;;;34.62;20.08
10176;BME280;18221;38.704;0.152;2022-07-18T09:44:15;99147.16;;;34.91;22.99
10176;BME280;18221;38.704;0.152;2022-07-18T09:46:59;99147.84;;;35.01;22.63
10176;BME280;18221;38.704;0.152;2022-07-18T09:49:30;99150.09;;;34.47;23.62
10176;BME280;18221;38.704;0.152;2022-07-18T09:52:07;99153.72;;;34.71;23.46
10176;BME280;18221;38.704;0.152;2022-07-18T09:54:41;99152.66;;;34.91;22.24
10176;BME280;18221;38.704;0.152;2022-07-18T09:57:10;99152.16;;;34.65;23.77
10176;BME280;18221;38.704;0.152;2022-07-18T09:59:50;99152.31;;;34.73;22.21
10176;BME280;18221;38.704;0.152;2022-07-18T10:02:19;99149.72;;;34.82;23.87
10176;BME280;18221;38.704;0.152;2022-07-18T10:04:47;99156.84;;;34.88;23.57
10176;BME280;18221;38.704;0.152;2022-07-18T10:07:17;99156.38;;;35.05;23.31
10176;BME280;18221;38.704;0.152;2022-07-18T10:09:45;99161.03;;;35.09;23.53
10176;BME280;18221;38.704;0.152;2022-07-18T10:12:14;99167.16;;;35.25;23.23
10176;BME280;18221;38.704;0.152;2022-07-18T10:14:44;99157.44;;;35.46;22.72
10176;BME280;18221;38.704;0.152;2022-07-18T10:17:12;99164.31;;;35.49;23.29
10176;BME280;18221;38.704;0.152;2022-07-18T10:19:40;99165.25;;;35.63;22.64
10176;BME280;18221;38.704;0.152;2022-07-18T10:22:09;99168.75;;;35.68;22.54
10176;BME280;18221;38.704;0.152;2022-07-18T10:24:40;99158.88;;;35.81;22.34
10176;BME280;18221;38.704;0.152;2022-07-18T10:27:17;99159.63;;;35.86;21.17
10176;BME280;18221;38.704;0.152;2022-07-18T10:30:08;99158.66;;;35.77;21.71
10176;BME280;18221;38.704;0.152;2022-07-18T10:32:36;99157.81;;;35.95;21.53
10176;BME280;18221;38.704;0.152;2022-07-18T10:35:05;99155.22;;;35.85;21.77
10176;BME280;18221;38.704;0.152;2022-07-18T10:37:34;99152.97;;;36.06;22.23
10176;BME280;18221;38.704;0.152;2022-07-18T10:40:26;99153.63;;;35.98;20.79
10176;BME280;18221;38.704;0.152;2022-07-18T10:43:35;99152.84;;;35.79;22.72
10176;BME280;18221;38.704;0.152;2022-07-18T10:46:05;99155.38;;;35.75;23.24
10176;BME280;18221;38.704;0.152;2022-07-18T10:48:56;99154.19;;;35.63;23.99
10176;BME280;18221;38.704;0.152;2022-07-18T10:51:33;99160.75;;;35.29;23.08
10176;BME280;18221;38.704;0.152;2022-07-18T10:54:10;99151.72;;;35.00;23.04
10176;BME280;18221;38.704;0.152;2022-07-18T10:57:08;99144.09;;;35.16;24.33
10176;BME280;18221;38.704;0.152;2022-07-18T10:59:38;99157.97;;;35.29;23.96
10176;BME280;18221;38.704;0.152;2022-07-18T11:02:33;99143.19;;;35.39;22.91
10176;BME280;18221;38.704;0.152;2022-07-18T11:05:01;99148.47;;;35.35;24.08
10176;BME280;18221;38.704;0.152;2022-07-18T11:07:29;99149.38;;;35.12;24.78
10176;BME280;18221;38.704;0.152;2022-07-18T11:09:57;99143.56;;;34.90;24.50
10176;BME280;18221;38.704;0.152;2022-07-18T11:12:31;99151.00;;;35.13;23.59
10176;BME280;18221;38.704;0.152;2022-07-18T11:15:12;99150.06;;;34.99;23.62
10176;BME280;18221;38.704;0.152;2022-07-18T11:18:01;99152.88;;;34.94;25.05
10176;BME280;18221;38.704;0.152;2022-07-18T11:20:37;99148.38;;;35.03;26.30
10176;BME280;18221;38.704;0.152;2022-07-18T11:23:17;99147.22;;;35.09;25.93
10176;BME280;18221;38.704;0.152;2022-07-18T11:25:46;99148.44;;;34.98;26.14
10176;BME280;18221;38.704;0.152;2022-07-18T11:28:16;99151.38;;;34.83;25.61
10176;BME280;18221;38.704;0.152;2022-07-18T11:30:45;99143.75;;;34.75;26.04
10176;BME280;18221;38.704;0.152;2022-07-18T11:33:29;99141.16;;;34.84;24.68
10176;BME280;18221;38.704;0.152;2022-07-18T11:36:04;99144.78;;;34.79;27.20
10176;BME280;18221;38.704;0.152;2022-07-18T11:38:34;99145.25;;;35.10;27.11
10176;BME280;18221;38.704;0.152;2022-07-18T11:41:04;99144.75;;;35.26;27.60
10176;BME280;18221;38.704;0.152;2022-07-18T11:43:33;99129.72;;;35.38;28.10
10176;BME280;18221;38.704;0.152;2022-07-18T11:46:06;99134.72;;;35.54;26.94
10176;BME280;18221;38.704;0.152;2022-07-18T11:48:36;99121.66;;;35.60;27.25
10176;BME280;18221;38.704;0.152;2022-07-18T11:51:09;99120.44;;;35.28;26.26
10176;BME280;18221;38.704;0.152;2022-07-18T11:53:43;99133.56;;;35.37;27.46
10176;BME280;18221;38.704;0.152;2022-07-18T11:56:12;99124.47;;;35.36;28.82
10176;BME280;18221;38.704;0.152;2022-07-18T11:58:43;99123.03;;;35.39;27.60
10176;BME280;18221;38.704;0.152;2022-07-18T12:01:13;99127.91;;;35.47;27.19
10176;BME280;18221;38.704;0.152;2022-07-18T12:03:43;99119.47;;;35.57;28.14
10176;BME280;18221;38.704;0.152;2022-07-18T12:06:13;99122.72;;;35.64;28.54
10176;BME280;18221;38.704;0.152;2022-07-18T12:08:43;99119.25;;;35.72;28.39
10176;BME280;18221;38.704;0.152;2022-07-18T12:11:17;99114.50;;;35.59;29.82
10176;BME280;18221;38.704;0.152;2022-07-18T12:13:53;99116.50;;;35.72;27.35
10176;BME280;18221;38.704;0.152;2022-07-18T12:16:34;99112.78;;;35.95;29.48
10176;BME280;18221;38.704;0.152;2022-07-18T12:19:06;99104.41;;;36.00;29.57
10176;BME280;18221;38.704;0.152;2022-07-18T12:21:49;99109.66;;;36.02;29.12
10176;BME280;18221;38.704;0.152;2022-07-18T12:24:37;99114.31;;;36.20;29.34
10176;BME280;18221;38.704;0.152;2022-07-18T12:27:24;99113.41;;;36.38;29.52
10176;BME280;18221;38.704;0.152;2022-07-18T12:30:07;99110.84;;;36.28;28.13
10176;BME280;18221;38.704;0.152;2022-07-18T12:32:45;99109.31;;;36.35;28.44
10176;BME280;18221;38.704;0.152;2022-07-18T12:35:18;99104.50;;;36.41;28.92
10176;BME280;18221;38.704;0.152;2022-07-18T12:37:55;99106.41;;;36.13;29.38
10176;BME280;18221;38.704;0.152;2022-07-18T12:40:25;99101.78;;;36.09;30.37
10176;BME280;18221;38.704;0.152;2022-07-18T12:43:04;99105.69;;;36.08;29.28
10176;BME280;18221;38.704;0.152;2022-07-18T12:45:35;99095.22;;;36.05;29.96
10176;BME280;18221;38.704;0.152;2022-07-18T12:48:05;99091.13;;;36.02;29.11
10176;BME280;18221;38.704;0.152;2022-07-18T12:50:34;99093.44;;;36.14;28.87
10176;BME280;18221;38.704;0.152;2022-07-18T12:53:02;99092.78;;;36.17;28.46
10176;BME280;18221;38.704;0.152;2022-07-18T12:55:30;99090.16;;;35.93;28.38
10176;BME280;18221;38.704;0.152;2022-07-18T12:57:59;99086.97;;;35.86;28.60
10176;BME280;18221;38.704;0.152;2022-07-18T13:00:27;99081.00;;;35.79;28.27
10176;BME280;18221;38.704;0.152;2022-07-18T13:02:58;99081.63;;;35.76;27.95
10176;BME280;18221;38.704;0.152;2022-07-18T13:05:28;99078.25;;;35.79;27.36
10176;BME280;18221;38.704;0.152;2022-07-18T13:07:59;99078.66;;;35.86;27.20
10176;BME280;18221;38.704;0.152;2022-07-18T13:10:34;99078.28;;;35.92;26.70
10176;BME280;18221;38.704;0.152;2022-07-18T13:13:03;99073.13;;;35.86;25.07
10176;BME280;18221;38.704;0.152;2022-07-18T13:15:32;99080.09;;;35.83;24.34
10176;BME280;18221;38.704;0.152;2022-07-18T13:18:02;99077.38;;;35.97;24.57
10176;BME280;18221;38.704;0.152;2022-07-18T13:20:31;99078.97;;;36.03;23.09
10176;BME280;18221;38.704;0.152;2022-07-18T13:22:59;99074.34;;;36.12;21.24
10176;BME280;18221;38.704;0.152;2022-07-18T13:25:28;99071.50;;;36.17;21.46
10176;BME280;18221;38.704;0.152;2022-07-18T13:27:59;99070.56;;;36.08;21.79
10176;BME280;18221;38.704;0.152;2022-07-18T13:30:26;99073.75;;;36.15;21.42
10176;BME280;18221;38.704;0.152;2022-07-18T13:32:54;99073.25;;;36.13;21.70
10176;BME280;18221;38.704;0.152;2022-07-18T13:35:24;99072.97;;;35.96;22.08
10176;BME280;18221;38.704;0.152;2022-07-18T13:37:52;99073.53;;;36.12;23.38
10176;BME280;18221;38.704;0.152;2022-07-18T13:40:20;99064.34;;;36.16;23.18